Time;durP1;ratioP1;P1;durP2;ratioP2;P2;SDS_P1;SDS_P2;PMS_P1;PMS_P2;Temp;Humidity;BMP_temperature;BMP_pressure;BME280_temperature;BME280_humidity;BME280_pressure;Samples;Min_cycle;Max_cycle;Signal;HPM_P1;HPM_P2
2021/08/15 00:00:00;;;;;;;14.02;12.57;;;25.10;99.90;;;;;;5091238;28;20205;-75
2021/08/15 00:02:29;;;;;;;13.00;11.05;;;25.10;99.90;;;;;;5091886;28;20213;-75
2021/08/15 00:04:56;;;;;;;15.15;12.45;;;25.00;99.90;;;;;;5091324;28;20205;-74
2021/08/15 00:07:24;;;;;;;15.07;12.13;;;25.10;99.90;;;;;;5091718;28;20255;-75
2021/08/15 00:09:52;;;;;;;14.75;11.27;;;25.00;99.90;;;;;;5091315;28;20676;-75
2021/08/15 00:12:19;;;;;;;12.20;10.90;;;25.10;99.90;;;;;;5091666;28;20202;-74
2021/08/15 00:14:46;;;;;;;11.98;10.73;;;25.00;99.90;;;;;;5091704;28;20225;-75
2021/08/15 00:17:13;;;;;;;14.02;11.18;;;25.00;99.90;;;;;;5090979;28;20206;-75
2021/08/15 00:19:40;;;;;;;13.38;10.82;;;25.00;99.90;;;;;;5091427;28;20556;-74
2021/08/15 00:22:07;;;;;;;12.52;10.93;;;24.90;99.90;;;;;;5090807;28;20667;-74
2021/08/15 00:24:36;;;;;;;13.65;11.50;;;24.80;99.90;;;;;;5091789;28;20201;-74
2021/08/15 00:27:03;;;;;;;16.23;12.50;;;24.80;99.90;;;;;;5091010;28;20243;-75
2021/08/15 00:29:30;;;;;;;12.48;11.10;;;24.70;99.90;;;;;;5091285;28;20205;-74
2021/08/15 00:31:58;;;;;;;13.18;11.85;;;24.70;99.90;;;;;;5090638;28;20205;-74
2021/08/15 00:34:25;;;;;;;15.05;11.57;;;24.50;99.90;;;;;;5090944;28;20201;-74
2021/08/15 00:36:52;;;;;;;12.75;11.50;;;24.50;99.90;;;;;;5091104;28;20255;-74
2021/08/15 00:39:19;;;;;;;13.30;11.98;;;24.40;99.90;;;;;;5091648;28;20258;-75
2021/08/15 00:41:47;;;;;;;16.30;11.15;;;24.50;99.90;;;;;;5112176;28;20204;-75
2021/08/15 00:44:14;;;;;;;13.23;11.77;;;24.60;99.90;;;;;;5107788;28;20310;-75
2021/08/15 00:46:43;;;;;;;13.70;10.88;;;24.60;99.90;;;;;;5093961;28;20209;-75
2021/08/15 00:49:10;;;;;;;13.30;10.85;;;24.60;99.90;;;;;;5105011;28;20208;-75
2021/08/15 00:51:37;;;;;;;12.95;11.48;;;24.60;99.90;;;;;;5091023;28;20681;-75
2021/08/15 00:54:05;;;;;;;13.93;11.88;;;24.60;99.90;;;;;;5090349;28;20247;-75
2021/08/15 00:56:33;;;;;;;12.20;10.95;;;24.60;99.90;;;;;;5083785;28;20237;-75
2021/08/15 00:59:05;;;;;;;13.80;11.70;;;24.50;99.90;;;;;;5098158;28;20251;-75
2021/08/15 01:01:33;;;;;;;11.35;10.23;;;24.40;99.90;;;;;;5090617;28;20231;-75
2021/08/15 01:04:03;;;;;;;13.13;11.75;;;24.40;99.90;;;;;;5090401;28;20263;-75
2021/08/15 01:06:32;;;;;;;14.52;11.48;;;24.30;99.90;;;;;;5090729;28;20224;-75
2021/08/15 01:08:59;;;;;;;13.65;10.65;;;24.20;99.90;;;;;;5090276;28;20240;-75
2021/08/15 01:11:26;;;;;;;13.57;12.15;;;24.20;99.90;;;;;;5090543;28;20209;-75
2021/08/15 01:13:53;;;;;;;12.30;10.98;;;24.20;99.90;;;;;;5098956;28;20588;-75
2021/08/15 01:16:21;;;;;;;12.27;10.18;;;24.30;99.90;;;;;;5095534;28;20777;-75
2021/08/15 01:18:48;;;;;;;16.33;12.35;;;24.30;99.90;;;;;;5091021;28;20209;-75
2021/08/15 01:21:15;;;;;;;15.00;12.48;;;24.30;99.90;;;;;;5091159;28;20673;-75
2021/08/15 01:23:44;;;;;;;15.27;11.85;;;24.20;99.90;;;;;;5090716;28;20205;-75
2021/08/15 01:26:13;;;;;;;19.13;13.98;;;24.30;99.90;;;;;;5089877;28;20262;-75
2021/08/15 01:28:41;;;;;;;14.35;11.57;;;24.40;99.90;;;;;;5090441;28;20254;-75
2021/08/15 01:31:09;;;;;;;14.65;11.82;;;24.50;99.90;;;;;;5090268;28;20259;-75
2021/08/15 01:33:39;;;;;;;17.75;13.40;;;24.50;99.90;;;;;;5090412;28;20209;-75
2021/08/15 01:36:07;;;;;;;14.25;12.05;;;24.60;99.90;;;;;;5090062;28;20230;-75
2021/08/15 01:38:36;;;;;;;13.63;10.55;;;24.70;99.90;;;;;;5090105;28;20251;-75
2021/08/15 01:41:04;;;;;;;16.55;11.48;;;24.60;99.90;;;;;;5090411;28;20239;-75
2021/08/15 01:43:33;;;;;;;13.45;12.07;;;24.60;99.90;;;;;;5090316;28;20217;-74
2021/08/15 01:46:02;;;;;;;15.30;12.82;;;24.50;99.90;;;;;;5090077;28;20216;-75
2021/08/15 01:48:29;;;;;;;13.25;11.55;;;24.50;99.90;;;;;;5102991;28;20209;-75
2021/08/15 01:50:56;;;;;;;14.35;11.95;;;24.40;99.90;;;;;;5086714;28;20228;-75
2021/08/15 01:53:24;;;;;;;13.65;12.25;;;24.40;99.90;;;;;;5081048;28;20266;-75
2021/08/15 01:55:51;;;;;;;13.93;11.30;;;24.50;99.90;;;;;;5086814;28;20275;-75
2021/08/15 01:58:19;;;;;;;15.00;12.80;;;24.40;99.90;;;;;;5080074;28;20294;-75
2021/08/15 02:00:46;;;;;;;13.65;11.45;;;24.50;99.90;;;;;;5094589;28;20230;-75
2021/08/15 02:03:15;;;;;;;16.17;11.57;;;24.40;99.90;;;;;;5094098;28;20198;-75
2021/08/15 02:05:44;;;;;;;14.77;12.13;;;24.50;99.90;;;;;;5094174;28;20625;-75
2021/08/15 02:08:11;;;;;;;13.68;12.25;;;24.60;99.90;;;;;;5093675;28;20734;-75
2021/08/15 02:10:39;;;;;;;13.32;11.93;;;24.60;99.90;;;;;;5094173;28;20210;-75
2021/08/15 02:13:08;;;;;;;13.70;12.27;;;24.60;99.90;;;;;;5093303;28;20209;-75
2021/08/15 02:15:35;;;;;;;15.10;10.98;;;24.50;99.90;;;;;;5093813;28;20783;-75
2021/08/15 02:18:02;;;;;;;12.07;10.80;;;24.40;99.90;;;;;;5093219;28;20205;-75
2021/08/15 02:20:34;;;;;;;16.65;12.15;;;24.50;99.90;;;;;;5093687;28;20264;-75
2021/08/15 02:23:01;;;;;;;16.98;12.15;;;24.60;99.90;;;;;;5093080;28;20197;-75
2021/08/15 02:25:29;;;;;;;14.55;12.88;;;24.40;99.90;;;;;;5102924;28;20654;-75
2021/08/15 02:27:57;;;;;;;13.07;11.18;;;24.30;99.90;;;;;;5098105;28;20209;-75
2021/08/15 02:30:26;;;;;;;14.82;11.95;;;24.40;99.90;;;;;;5093659;28;20733;-75
2021/08/15 02:32:53;;;;;;;16.98;11.23;;;24.40;99.90;;;;;;5093132;28;20590;-75
2021/08/15 02:35:21;;;;;;;12.48;9.88;;;24.40;99.90;;;;;;5079401;28;20626;-75
2021/08/15 02:37:51;;;;;;;14.30;11.20;;;24.40;99.90;;;;;;5093700;28;20201;-75
2021/08/15 02:40:19;;;;;;;16.27;12.40;;;24.40;99.90;;;;;;5093246;28;20251;-75
2021/08/15 02:42:48;;;;;;;16.25;12.52;;;24.40;99.90;;;;;;5093663;28;20213;-75
2021/08/15 02:45:17;;;;;;;15.98;12.35;;;24.40;99.90;;;;;;5093448;28;20665;-75
2021/08/15 02:47:45;;;;;;;13.43;11.73;;;24.30;99.90;;;;;;5100198;28;20262;-75
2021/08/15 02:50:14;;;;;;;13.00;11.57;;;24.40;99.90;;;;;;5113855;28;20205;-74
2021/08/15 02:52:41;;;;;;;16.10;11.77;;;24.40;99.90;;;;;;5094299;28;20255;-75
2021/08/15 02:55:10;;;;;;;12.48;10.60;;;24.50;99.90;;;;;;5092725;28;20725;-74
2021/08/15 02:57:38;;;;;;;15.68;10.98;;;24.60;99.90;;;;;;5092631;28;20209;-75
2021/08/15 03:00:07;;;;;;;14.57;11.00;;;24.50;99.90;;;;;;5092574;28;20327;-75
2021/08/15 03:02:34;;;;;;;15.70;11.40;;;24.50;99.90;;;;;;5093087;28;20209;-75
2021/08/15 03:05:01;;;;;;;16.98;12.07;;;24.50;99.90;;;;;;5092879;28;20205;-75
2021/08/15 03:07:28;;;;;;;14.45;11.07;;;24.40;99.90;;;;;;5092718;28;20681;-75
2021/08/15 03:09:55;;;;;;;12.68;10.02;;;24.40;99.90;;;;;;5091255;28;20622;-75
2021/08/15 03:12:23;;;;;;;14.52;10.40;;;24.40;99.90;;;;;;5092850;28;20223;-75
2021/08/15 03:14:50;;;;;;;17.33;12.20;;;24.40;99.90;;;;;;5092418;28;20631;-75
2021/08/15 03:17:17;;;;;;;15.80;12.13;;;24.40;99.90;;;;;;5093126;28;20241;-75
2021/08/15 03:19:44;;;;;;;14.32;11.23;;;24.40;99.90;;;;;;5092908;28;20255;-75
2021/08/15 03:22:11;;;;;;;13.40;10.20;;;24.30;99.90;;;;;;5092199;28;20734;-75
2021/08/15 03:24:38;;;;;;;14.98;10.43;;;24.30;99.90;;;;;;5092473;28;20209;-75
2021/08/15 03:27:05;;;;;;;14.77;10.65;;;24.30;99.90;;;;;;5092040;28;20290;-74
2021/08/15 03:29:33;;;;;;;13.55;10.93;;;24.30;99.90;;;;;;5092575;28;20205;-74
2021/08/15 03:32:00;;;;;;;13.18;9.82;;;24.20;99.90;;;;;;5092455;28;20205;-75
2021/08/15 03:34:28;;;;;;;12.00;10.77;;;24.30;99.90;;;;;;5092739;28;20205;-74
2021/08/15 03:36:55;;;;;;;12.18;10.73;;;24.20;99.90;;;;;;5091931;28;20229;-74
2021/08/15 03:39:22;;;;;;;16.38;9.75;;;24.20;99.90;;;;;;5092276;28;20206;-74
2021/08/15 03:41:50;;;;;;;13.07;9.85;;;24.20;99.90;;;;;;5091423;28;20258;-74
2021/08/15 03:44:17;;;;;;;11.50;9.43;;;24.10;99.90;;;;;;5082515;28;20214;-74
2021/08/15 03:46:45;;;;;;;12.20;10.02;;;24.20;99.90;;;;;;5088191;28;20591;-75
2021/08/15 03:49:13;;;;;;;10.60;9.52;;;24.20;99.90;;;;;;5106417;28;20309;-74
2021/08/15 03:51:40;;;;;;;14.52;10.18;;;24.20;99.90;;;;;;5092180;28;20300;-75
2021/08/15 03:54:07;;;;;;;14.50;9.23;;;24.10;99.90;;;;;;5091413;28;20302;-74
2021/08/15 03:56:34;;;;;;;12.43;10.85;;;24.00;99.90;;;;;;5092057;28;20313;-74
2021/08/15 03:59:01;;;;;;;11.48;8.77;;;24.10;99.90;;;;;;5091384;28;20729;-75
2021/08/15 04:01:28;;;;;;;11.73;9.45;;;24.00;99.90;;;;;;5091860;28;20722;-75
2021/08/15 04:03:56;;;;;;;15.75;9.52;;;24.10;99.90;;;;;;5091702;28;20270;-74
2021/08/15 04:06:23;;;;;;;10.05;8.57;;;24.00;99.90;;;;;;5091695;28;20218;-74
2021/08/15 04:08:51;;;;;;;11.43;8.85;;;24.00;99.90;;;;;;5091183;28;20734;-74
2021/08/15 04:11:19;;;;;;;10.18;8.95;;;23.90;99.90;;;;;;5091590;28;20205;-74
2021/08/15 04:13:46;;;;;;;9.50;8.32;;;23.90;99.90;;;;;;5092224;28;20262;-75
2021/08/15 04:16:13;;;;;;;10.85;8.82;;;24.10;99.90;;;;;;5091493;28;20225;-75
2021/08/15 04:18:40;;;;;;;12.75;9.38;;;24.00;99.90;;;;;;5091835;28;20270;-75
2021/08/15 04:21:09;;;;;;;8.75;7.97;;;24.00;99.90;;;;;;5090702;28;20267;-74
2021/08/15 04:23:36;;;;;;;9.43;7.40;;;24.10;99.90;;;;;;5091609;28;20213;-74
2021/08/15 04:26:04;;;;;;;12.13;8.52;;;24.00;99.90;;;;;;5091274;28;20263;-75
2021/08/15 04:28:31;;;;;;;8.65;7.75;;;24.00;99.90;;;;;;5091342;28;20684;-75
2021/08/15 04:30:58;;;;;;;8.45;7.35;;;23.90;99.90;;;;;;5091307;28;20209;-74
2021/08/15 04:33:25;;;;;;;9.18;7.78;;;23.90;99.90;;;;;;5091395;28;20274;-74
2021/08/15 04:35:53;;;;;;;9.60;7.93;;;24.00;99.90;;;;;;5090802;28;20205;-74
2021/08/15 04:38:23;;;;;;;8.35;7.35;;;24.00;99.90;;;;;;5090984;28;20232;-74
2021/08/15 04:40:50;;;;;;;8.48;7.57;;;24.00;99.90;;;;;;5091226;28;20205;-74
2021/08/15 04:43:18;;;;;;;8.00;7.05;;;24.00;99.90;;;;;;5090958;28;20770;-75
2021/08/15 04:45:46;;;;;;;8.93;7.40;;;23.90;99.90;;;;;;5091515;28;20205;-74
2021/08/15 04:48:14;;;;;;;10.73;8.10;;;23.90;99.90;;;;;;5101289;28;20201;-74
2021/08/15 04:50:41;;;;;;;7.65;6.85;;;23.90;99.90;;;;;;5094547;28;20201;-75
2021/08/15 04:53:08;;;;;;;11.75;8.40;;;23.80;99.90;;;;;;5090692;28;20201;-74
2021/08/15 04:55:36;;;;;;;7.70;6.75;;;23.80;99.90;;;;;;5090698;28;20206;-75
2021/08/15 04:58:04;;;;;;;8.55;7.32;;;24.00;99.90;;;;;;5090623;28;20229;-75
2021/08/15 05:00:31;;;;;;;7.90;7.28;;;23.90;99.90;;;;;;5090778;28;20213;-74
2021/08/15 05:02:58;;;;;;;8.10;7.30;;;23.90;99.90;;;;;;5090291;28;20201;-74
2021/08/15 05:05:25;;;;;;;8.48;7.03;;;24.00;99.90;;;;;;5090656;28;20669;-74
2021/08/15 05:07:52;;;;;;;9.02;7.82;;;23.90;99.90;;;;;;5089864;28;20213;-74
2021/08/15 05:10:19;;;;;;;7.68;6.95;;;23.90;99.90;;;;;;5080593;28;20202;-75
2021/08/15 05:12:48;;;;;;;9.80;7.70;;;23.90;99.90;;;;;;5087338;28;20206;-74
2021/08/15 05:15:15;;;;;;;7.82;7.03;;;23.80;99.90;;;;;;5090720;28;20276;-74
2021/08/15 05:17:42;;;;;;;8.70;7.90;;;23.80;99.90;;;;;;5090515;28;20233;-74
2021/08/15 05:20:10;;;;;;;7.20;6.50;;;23.90;99.90;;;;;;5090319;28;20996;-74
2021/08/15 05:22:37;;;;;;;9.18;6.90;;;23.90;99.90;;;;;;5090386;28;20214;-74
2021/08/15 05:25:04;;;;;;;7.43;6.22;;;23.70;99.90;;;;;;5090117;28;20278;-74
2021/08/15 05:27:31;;;;;;;9.88;6.43;;;23.80;99.90;;;;;;5090731;28;20209;-74
2021/08/15 05:30:00;;;;;;;8.77;7.10;;;23.90;99.90;;;;;;5089818;28;20205;-74
2021/08/15 05:32:27;;;;;;;7.97;6.35;;;24.00;99.90;;;;;;5090630;28;20254;-74
2021/08/15 05:34:54;;;;;;;7.45;6.75;;;24.00;99.90;;;;;;5093512;28;20240;-75
2021/08/15 05:37:21;;;;;;;8.18;6.38;;;24.00;99.90;;;;;;5094576;28;20278;-74
2021/08/15 05:39:48;;;;;;;6.95;5.78;;;24.10;99.90;;;;;;5094330;28;20206;-74
2021/08/15 05:42:16;;;;;;;11.25;7.68;;;24.10;99.90;;;;;;5094917;28;20206;-75
2021/08/15 05:44:43;;;;;;;9.20;7.20;;;24.00;99.90;;;;;;5095027;28;20242;-75
2021/08/15 05:47:11;;;;;;;8.20;7.05;;;24.00;99.90;;;;;;5095134;28;20630;-74
2021/08/15 05:49:38;;;;;;;7.40;6.70;;;24.00;99.90;;;;;;5107110;27;20201;-75
2021/08/15 05:52:06;;;;;;;11.38;7.25;;;24.00;99.90;;;;;;5094186;28;20240;-74
2021/08/15 05:54:33;;;;;;;8.38;6.85;;;24.00;99.90;;;;;;5080494;28;20259;-74
2021/08/15 05:57:00;;;;;;;8.63;7.50;;;24.00;99.90;;;;;;5093897;28;20237;-74
2021/08/15 05:59:27;;;;;;;10.13;6.93;;;24.00;99.90;;;;;;5099034;28;20208;-74
2021/08/15 06:01:55;;;;;;;8.18;7.38;;;24.00;99.90;;;;;;5103497;28;20262;-75
2021/08/15 06:04:24;;;;;;;10.27;7.20;;;23.90;99.90;;;;;;5079798;28;20216;-74
2021/08/15 06:06:51;;;;;;;8.30;6.47;;;23.90;99.90;;;;;;5093551;28;20232;-75
2021/08/15 06:09:18;;;;;;;8.27;7.47;;;23.90;99.90;;;;;;5093829;28;20278;-75
2021/08/15 06:11:46;;;;;;;9.52;7.13;;;23.90;99.90;;;;;;5094613;28;20214;-74
2021/08/15 06:14:14;;;;;;;8.70;6.75;;;24.00;99.90;;;;;;5093868;28;20622;-74
2021/08/15 06:16:41;;;;;;;11.35;8.35;;;24.10;99.90;;;;;;5094100;28;20225;-74
2021/08/15 06:19:08;;;;;;;8.00;6.70;;;24.20;99.90;;;;;;5093693;28;20217;-75
2021/08/15 06:21:36;;;;;;;9.93;7.35;;;24.30;99.90;;;;;;5093546;28;20201;-75
2021/08/15 06:24:03;;;;;;;10.40;7.18;;;24.40;99.90;;;;;;5093479;28;20209;-74
2021/08/15 06:26:30;;;;;;;9.93;7.40;;;24.50;99.90;;;;;;5093683;28;20209;-75
2021/08/15 06:28:57;;;;;;;11.05;7.75;;;24.50;99.90;;;;;;5093657;28;20206;-75
2021/08/15 06:31:25;;;;;;;8.55;7.65;;;24.50;99.90;;;;;;5093783;28;20288;-74
2021/08/15 06:33:52;;;;;;;9.43;7.35;;;24.40;99.90;;;;;;5093259;28;20217;-75
2021/08/15 06:36:19;;;;;;;10.52;7.90;;;24.30;99.90;;;;;;5093252;28;20205;-74
2021/08/15 06:38:48;;;;;;;8.35;6.57;;;24.20;99.90;;;;;;5093940;28;20205;-74
2021/08/15 06:41:15;;;;;;;10.88;6.88;;;24.30;99.90;;;;;;5094003;28;20209;-81
2021/08/15 06:43:43;;;;;;;12.18;7.95;;;24.40;99.90;;;;;;5097033;28;20220;-83
2021/08/15 06:46:10;;;;;;;12.95;7.15;;;24.60;99.90;;;;;;5095139;28;20205;-82
2021/08/15 06:48:37;;;;;;;9.75;8.30;;;24.80;99.90;;;;;;5101554;28;20209;-83
2021/08/15 06:51:04;;;;;;;10.85;7.60;;;25.00;99.90;;;;;;5093279;28;20275;-82
2021/08/15 06:53:32;;;;;;;8.32;6.85;;;25.00;99.90;;;;;;5093363;28;20209;-81
2021/08/15 06:56:01;;;;;;;8.68;7.63;;;25.20;99.90;;;;;;5092890;28;20209;-83
2021/08/15 06:58:28;;;;;;;10.10;7.40;;;25.20;99.90;;;;;;5093435;28;20294;-83
2021/08/15 07:00:55;;;;;;;9.35;6.25;;;25.20;99.90;;;;;;5094980;28;20208;-84
2021/08/15 07:03:23;;;;;;;7.57;6.82;;;25.30;99.90;;;;;;5092990;28;20270;-82
2021/08/15 07:05:50;;;;;;;11.85;7.93;;;25.40;99.90;;;;;;5092857;28;20283;-82
2021/08/15 07:08:17;;;;;;;7.72;6.88;;;25.30;99.90;;;;;;5093256;28;20209;-83
2021/08/15 07:10:45;;;;;;;8.90;7.40;;;25.20;99.90;;;;;;5092964;28;20712;-81
2021/08/15 07:13:16;;;;;;;12.23;7.57;;;25.30;99.90;;;;;;5092610;28;20205;-84
2021/08/15 07:15:43;;;;;;;9.35;7.90;;;25.30;99.90;;;;;;5093224;28;20228;-83
2021/08/15 07:18:10;;;;;;;8.77;7.88;;;25.50;99.90;;;;;;5091332;28;20229;-83
2021/08/15 07:20:37;;;;;;;8.02;6.82;;;25.60;99.90;;;;;;5098530;28;20665;-81
2021/08/15 07:23:04;;;;;;;8.50;6.82;;;25.60;99.90;;;;;;5092120;28;20617;-81
2021/08/15 07:25:31;;;;;;;7.75;7.05;;;25.70;99.90;;;;;;5090540;28;20254;-84
2021/08/15 07:28:00;;;;;;;10.85;7.25;;;25.70;99.90;;;;;;5087616;28;20205;-84
2021/08/15 07:30:28;;;;;;;10.45;7.55;;;25.90;99.90;;;;;;5092494;28;20259;-84
2021/08/15 07:32:57;;;;;;;10.50;7.20;;;26.10;99.90;;;;;;5091660;28;20206;-81
2021/08/15 07:35:25;;;;;;;7.68;6.80;;;26.20;99.90;;;;;;5092230;28;20759;-80
2021/08/15 07:37:53;;;;;;;8.48;7.10;;;26.40;99.90;;;;;;5092078;28;20282;-81
2021/08/15 07:40:20;;;;;;;8.75;6.65;;;26.50;99.90;;;;;;5092454;28;20198;-78
2021/08/15 07:42:50;;;;;;;7.88;6.28;;;26.40;99.90;;;;;;5092260;28;20267;-78
2021/08/15 07:45:18;;;;;;;7.90;6.90;;;26.50;99.90;;;;;;5092001;28;20244;-79
2021/08/15 07:47:46;;;;;;;7.97;7.15;;;26.70;99.90;;;;;;5098602;28;20209;-82
2021/08/15 07:50:13;;;;;;;7.13;6.43;;;26.80;99.90;;;;;;5095129;28;20205;-82
2021/08/15 07:52:40;;;;;;;8.05;7.25;;;26.40;99.90;;;;;;5085085;28;20330;-81
2021/08/15 07:55:08;;;;;;;9.27;6.95;;;26.20;99.90;;;;;;5091536;28;20213;-81
2021/08/15 07:57:35;;;;;;;8.73;5.60;;;26.30;99.90;;;;;;5091723;28;20294;-80
2021/08/15 08:00:03;;;;;;;8.98;6.80;;;26.30;99.90;;;;;;5090605;28;20213;-82
2021/08/15 08:02:30;;;;;;;10.13;7.20;;;26.20;99.90;;;;;;5091272;28;20206;-82
2021/08/15 08:04:58;;;;;;;8.35;7.15;;;26.40;99.90;;;;;;5091357;28;20201;-82
2021/08/15 08:07:25;;;;;;;9.88;6.68;;;26.20;99.90;;;;;;5091178;28;20201;-82
2021/08/15 08:09:53;;;;;;;8.93;6.50;;;26.20;99.90;;;;;;5094196;28;20259;-81
2021/08/15 08:12:21;;;;;;;9.02;6.70;;;26.30;99.90;;;;;;5091230;28;20210;-82
2021/08/15 08:14:49;;;;;;;7.00;6.25;;;26.80;99.90;;;;;;5091306;28;20740;-82
2021/08/15 08:17:17;;;;;;;11.48;7.18;;;27.00;99.90;;;;;;5091537;28;20647;-79
2021/08/15 08:19:45;;;;;;;9.60;6.50;;;27.40;99.90;;;;;;5091441;28;20233;-84
2021/08/15 08:22:14;;;;;;;8.60;6.22;;;27.00;99.90;;;;;;5090666;28;20208;-83
2021/08/15 08:24:42;;;;;;;9.73;6.45;;;27.30;99.90;;;;;;5091084;28;20580;-84
2021/08/15 08:27:09;;;;;;;7.32;6.50;;;27.00;99.90;;;;;;5090669;28;20806;-79
2021/08/15 08:29:36;;;;;;;7.93;6.80;;;27.10;99.90;;;;;;5097563;28;20200;-79
2021/08/15 08:32:03;;;;;;;8.55;6.95;;;26.80;99.90;;;;;;5090701;28;20205;-81
2021/08/15 08:34:30;;;;;;;8.15;6.78;;;26.20;99.90;;;;;;5091391;28;20206;-83
2021/08/15 08:36:57;;;;;;;8.75;7.85;;;25.50;99.90;;;;;;5090521;28;20198;-82
2021/08/15 08:39:28;;;;;;;7.38;6.60;;;25.30;99.90;;;;;;5090986;28;20255;-82
2021/08/15 08:41:56;;;;;;;8.82;7.60;;;25.40;99.90;;;;;;5090443;28;20696;-84
2021/08/15 08:44:25;;;;;;;10.45;7.03;;;25.70;99.90;;;;;;5092204;28;20258;-79
2021/08/15 08:46:52;;;;;;;8.85;7.07;;;26.40;99.90;;;;;;5090530;28;20198;-78
2021/08/15 08:49:20;;;;;;;8.30;6.38;;;26.80;99.90;;;;;;5090919;28;20642;-80
2021/08/15 08:51:47;;;;;;;9.85;6.13;;;27.30;99.90;;;;;;5091897;28;20205;-78
2021/08/15 08:54:15;;;;;;;8.68;6.45;;;27.10;99.90;;;;;;5091730;28;20289;-81
2021/08/15 08:56:43;;;;;;;8.27;6.25;;;27.00;99.90;;;;;;5090879;28;20254;-84
2021/08/15 08:59:10;;;;;;;7.68;6.50;;;26.80;99.90;;;;;;5093675;28;20228;-84
2021/08/15 09:01:42;;;;;;;9.15;7.15;;;26.40;99.90;;;;;;5090883;28;20625;-79
2021/08/15 09:04:10;;;;;;;10.05;6.80;;;26.70;99.90;;;;;;5090307;28;20274;-84
2021/08/15 09:06:39;;;;;;;9.05;6.60;;;26.80;99.90;;;;;;5090947;28;20678;-82
2021/08/15 09:09:11;;;;;;;7.78;6.85;;;27.30;99.90;;;;;;5090183;28;20209;-81
2021/08/15 09:11:38;;;;;;;8.18;6.50;;;27.20;99.90;;;;;;5085512;28;20296;-82
2021/08/15 09:14:08;;;;;;;8.70;6.25;;;27.00;99.90;;;;;;5089540;28;20205;-81
2021/08/15 09:16:57;;;;;;;6.93;6.00;;;27.20;99.90;;;;;;5090344;28;20209;-80
2021/08/15 09:19:30;;;;;;;6.45;5.72;;;27.40;99.90;;;;;;5088082;28;20221;-82
2021/08/15 09:22:10;;;;;;;8.02;6.13;;;27.50;99.90;;;;;;5086914;28;20258;-78
2021/08/15 09:24:46;;;;;;;7.22;6.45;;;27.80;99.90;;;;;;5085763;28;20205;-84
2021/08/15 09:27:17;;;;;;;8.77;5.85;;;27.50;99.90;;;;;;5089743;28;20279;-81
2021/08/15 09:30:09;;;;;;;8.32;6.40;;;27.70;99.90;;;;;;5090456;28;20198;-82
2021/08/15 09:32:38;;;;;;;10.63;6.63;;;27.90;99.90;;;;;;5088992;28;20213;-81
2021/08/15 09:35:06;;;;;;;7.82;6.10;;;27.90;99.90;;;;;;5089666;28;20239;-82
2021/08/15 09:37:35;;;;;;;7.40;6.03;;;28.00;99.90;;;;;;5099669;28;20201;-79
2021/08/15 09:40:20;;;;;;;7.78;5.97;;;27.50;99.90;;;;;;5107457;28;20245;-81
2021/08/15 09:42:47;;;;;;;6.97;5.60;;;27.90;99.90;;;;;;5107130;28;20285;-79
2021/08/15 09:45:17;;;;;;;8.55;6.07;;;28.30;99.90;;;;;;5107582;28;20250;-81
2021/08/15 09:47:45;;;;;;;9.70;7.07;;;29.60;99.90;;;;;;5107933;28;20257;-81
2021/08/15 09:50:19;;;;;;;7.88;7.15;;;29.40;99.90;;;;;;5102071;28;20314;-81
2021/08/15 09:52:47;;;;;;;9.85;7.22;;;29.10;99.90;;;;;;5102205;28;20212;-84
2021/08/15 09:55:14;;;;;;;9.27;6.68;;;29.70;99.90;;;;;;5102920;28;20629;-84
2021/08/15 09:57:42;;;;;;;8.30;6.28;;;29.80;99.90;;;;;;5101289;28;20665;-83
2021/08/15 10:00:35;;;;;;;8.43;6.80;;;29.70;99.90;;;;;;5098597;28;20300;-81
2021/08/15 10:03:03;;;;;;;9.10;6.38;;;29.70;99.90;;;;;;5098402;28;20204;-82
2021/08/15 10:05:32;;;;;;;7.60;6.32;;;29.90;99.90;;;;;;5101473;28;20220;-78
2021/08/15 10:08:01;;;;;;;7.22;6.53;;;29.60;99.90;;;;;;5102815;28;20193;-76
2021/08/15 10:10:29;;;;;;;9.38;6.65;;;29.70;99.90;;;;;;5103884;28;20666;-81
2021/08/15 10:12:56;;;;;;;9.00;7.20;;;30.20;99.90;;;;;;5089283;28;20255;-82
2021/08/15 10:15:23;;;;;;;9.00;7.00;;;29.20;99.90;;;;;;5089390;28;20205;-83
2021/08/15 10:17:53;;;;;;;7.82;6.63;;;28.90;99.90;;;;;;5089620;28;20225;-77
2021/08/15 10:20:23;;;;;;;10.18;6.68;;;28.50;99.90;;;;;;5099785;28;20255;-80
2021/08/15 10:22:51;;;;;;;8.48;7.00;;;28.10;99.90;;;;;;5092662;28;20684;-81
2021/08/15 10:25:33;;;;;;;8.43;7.32;;;28.70;99.90;;;;;;5090471;28;20271;-77
2021/08/15 10:28:01;;;;;;;7.45;6.75;;;29.30;99.90;;;;;;5093565;28;20701;-82
2021/08/15 10:30:48;;;;;;;8.00;7.15;;;29.00;99.90;;;;;;5091851;28;20210;-81
2021/08/15 10:33:24;;;;;;;11.18;7.07;;;28.80;99.90;;;;;;5093047;28;20209;-81
2021/08/15 10:36:25;;;;;;;8.02;7.28;;;28.90;99.90;;;;;;5091690;28;20250;-82
2021/08/15 10:38:55;;;;;;;9.35;6.65;;;29.30;99.90;;;;;;5070421;28;20228;-78
2021/08/15 10:41:50;;;;;;;12.57;7.28;;;29.80;99.90;;;;;;5091545;28;20255;-80
2021/08/15 10:44:17;;;;;;;7.20;6.07;;;29.50;99.90;;;;;;5056678;28;20263;-78
2021/08/15 10:47:13;;;;;;;7.80;6.88;;;29.60;99.90;;;;;;5098187;28;20255;-82
2021/08/15 10:49:53;;;;;;;7.38;5.97;;;29.50;99.90;;;;;;5081831;28;20205;-81
2021/08/15 10:52:34;;;;;;;9.32;5.97;;;29.10;99.90;;;;;;5092934;28;20205;-82
2021/08/15 10:55:04;;;;;;;9.75;6.43;;;29.30;99.90;;;;;;5093933;28;20296;-82
2021/08/15 10:57:53;;;;;;;9.50;6.63;;;29.30;99.90;;;;;;5092817;28;20676;-76
2021/08/15 11:00:43;;;;;;;8.32;6.88;;;29.50;99.90;;;;;;5093862;28;20292;-83
2021/08/15 11:03:32;;;;;;;7.72;6.63;;;29.30;99.90;;;;;;5088964;28;20209;-82
2021/08/15 11:06:02;;;;;;;14.15;11.35;;;29.50;99.90;;;;;;5092176;28;20201;-81
2021/08/15 11:08:57;;;;;;;8.73;7.13;;;29.80;99.90;;;;;;5092960;28;20291;-80
2021/08/15 11:11:30;;;;;;;8.18;6.25;;;29.60;99.90;;;;;;5091508;28;20648;-82
2021/08/15 11:14:28;;;;;;;8.80;7.45;;;29.00;99.90;;;;;;5092249;28;20205;-78
2021/08/15 11:17:11;;;;;;;10.25;7.75;;;29.10;99.90;;;;;;5090351;28;20278;-78
2021/08/15 11:19:39;;;;;;;10.63;7.38;;;29.10;99.90;;;;;;5089353;28;20229;-80
2021/08/15 11:22:24;;;;;;;8.43;7.15;;;29.40;99.90;;;;;;5092121;28;20209;-80
2021/08/15 11:24:54;;;;;;;8.70;7.90;;;29.50;99.90;;;;;;5091941;28;20208;-82
2021/08/15 11:27:28;;;;;;;7.78;7.13;;;29.80;99.90;;;;;;5092496;28;20246;-80
2021/08/15 11:29:57;;;;;;;10.20;7.53;;;29.20;99.90;;;;;;5101236;28;20468;-82
2021/08/15 11:32:25;;;;;;;9.18;8.25;;;28.50;99.90;;;;;;5112288;28;20249;-81
2021/08/15 11:34:54;;;;;;;13.90;9.60;;;28.70;99.90;;;;;;5107188;28;20208;-80
2021/08/15 11:37:24;;;;;;;12.00;8.52;;;28.90;99.90;;;;;;5103610;28;20610;-76
2021/08/15 11:39:52;;;;;;;10.77;8.35;;;28.90;99.90;;;;;;5099855;28;20273;-81
2021/08/15 11:42:21;;;;;;;14.15;9.35;;;29.00;99.90;;;;;;5109170;28;20205;-81
2021/08/15 11:44:53;;;;;;;15.02;9.02;;;28.80;99.90;;;;;;5110033;28;20624;-79
2021/08/15 11:47:21;;;;;;;11.00;8.18;;;28.60;99.90;;;;;;5106924;28;20205;-80
2021/08/15 11:49:49;;;;;;;10.20;8.13;;;28.70;99.90;;;;;;5103312;28;20210;-82
2021/08/15 11:52:18;;;;;;;11.32;8.65;;;28.70;99.90;;;;;;5092242;28;20205;-77
2021/08/15 11:54:46;;;;;;;11.65;9.23;;;28.50;99.90;;;;;;5092127;28;20204;-76
2021/08/15 11:57:14;;;;;;;10.75;8.55;;;28.70;99.90;;;;;;5091744;28;20205;-79
2021/08/15 11:59:44;;;;;;;13.40;8.30;;;28.60;99.90;;;;;;5087203;28;20241;-78
2021/08/15 12:02:17;;;;;;;11.13;9.15;;;28.60;99.90;;;;;;5092317;28;20254;-82
2021/08/15 12:04:46;;;;;;;12.00;10.73;;;28.50;99.90;;;;;;5092196;28;20250;-77
2021/08/15 12:07:19;;;;;;;9.75;8.85;;;28.40;99.90;;;;;;5091747;28;20202;-78
2021/08/15 12:09:48;;;;;;;9.60;7.90;;;28.30;99.90;;;;;;5092091;28;20262;-78
2021/08/15 12:12:15;;;;;;;10.73;9.00;;;27.90;99.90;;;;;;5091579;28;20205;-79
2021/08/15 12:14:42;;;;;;;9.95;8.20;;;27.80;99.90;;;;;;5091579;28;20206;-77
2021/08/15 12:17:10;;;;;;;11.23;9.05;;;27.90;99.90;;;;;;5091954;28;20313;-80
2021/08/15 12:19:38;;;;;;;11.27;8.35;;;27.70;99.90;;;;;;5101365;28;20745;-81
2021/08/15 12:22:17;;;;;;;13.52;9.90;;;27.70;99.90;;;;;;5109136;28;20287;-78
2021/08/15 12:24:46;;;;;;;13.68;10.38;;;27.80;99.90;;;;;;5107694;28;20207;-84
2021/08/15 12:27:14;;;;;;;10.98;8.65;;;27.90;99.90;;;;;;5109753;28;20201;-77
2021/08/15 12:29:43;;;;;;;12.20;8.73;;;27.80;99.90;;;;;;5109072;27;20253;-79
2021/08/15 12:32:13;;;;;;;12.40;9.43;;;28.10;99.90;;;;;;5110111;28;20197;-76
2021/08/15 12:34:42;;;;;;;13.68;9.20;;;28.00;99.90;;;;;;5110306;28;20258;-76
2021/08/15 12:37:15;;;;;;;12.07;10.32;;;27.80;99.90;;;;;;5103549;28;20541;-80
2021/08/15 12:39:43;;;;;;;10.93;9.13;;;27.70;99.90;;;;;;5091678;28;20274;-80
2021/08/15 12:42:19;;;;;;;8.85;8.05;;;27.70;99.90;;;;;;5102863;28;20638;-79
2021/08/15 12:44:53;;;;;;;12.90;8.77;;;27.70;99.90;;;;;;5091028;28;20201;-78
2021/08/15 12:47:28;;;;;;;14.80;10.23;;;27.80;99.90;;;;;;5106771;28;20582;-78